x

San Francisco - 18nm West Of San Francisco, Ca (46026) Wave Buoy

7:50pm - Fri 26th May 2017 All times are PDT. -7 hours from GMT.

  • Sig Wave height 3.6ft
  • Swell Direction
  • Peak Period 9s
  • Average Period 7s
  • Wind
    9mph, 11mph gusts
  • Sea Temp 55°f
  • Air Temp 54°f
  • Sea Pressure 1016.5mb
  • San Francisco - 18nm West Of San Francisco, Ca
  • San Francisco - 18nm West Of San Francisco, Ca

More Historic Weather Station data

Upgrade to MSW Pro to gain access to the past 30 days of data for over 8000 Wavebouys and Weather Stations around the globe.

Join Pro

Comparision Forecast

View Surf forecast
   
Fri 05/26 7:50pm 3.5ft 9s 7s 9 11 mph 1016.5mb 55f 54f
6:50pm 4ft 10s 7s 9 11 mph 1016.6mb 55f 54f
5:50pm 4ft 10s 7s 9 11 mph 1016.7mb 55f 54f
4:50pm 3.5ft 11s 7s 11 11 mph 1016.4mb 56f 55f
3:50pm 4ft 11s 7s 9 11 mph 1016.3mb 55f 55f
2:50pm 4ft 14s 7s 9 11 mph 1016.4mb 55f 54f
1:50pm 4ft 10s 7s 9 11 mph 1016.2mb 55f 54f
12:50pm 4ft 15s 7s 7 7 mph 1016.1mb 55f 54f
11:50am 4ft 10s 7s 7 7 mph 1015.6mb 54f 54f
10:50am 4ft 11s 7s 7 7 mph 1015.1mb 53f 54f
9:50am 4.5ft 10s 7s 4 7 mph 1014.8mb 53f 54f
8:50am 4.5ft 10s 7s 7 7 mph 1014.4mb 53f 53f
7:50am 4.5ft 11s 7s 2 4 mph 1013.9mb 53f 53f
6:50am 4.5ft 9s 7s 7 9 mph 1013.3mb 53f 53f
5:50am 4.5ft 10s 7s 9 11 mph 1012.7mb 53f 53f
4:50am 4.5ft 9s 7s 7 9 mph 1012.3mb 53f 53f
3:50am 4.5ft 10s 7s 9 11 mph 1012mb 53f 53f
2:50am 4.5ft 10s 7s 2 4 mph 1011.8mb 54f 54f
1:50am 4.5ft 11s 7s  -  2 mph 1011.8mb 54f 53f
12:50am 4.5ft 11s 7s 4 4 mph 1011.8mb 54f 54f
Thu 05/25 11:50pm 4.5ft 10s 6s 2 4 mph 1011.7mb 54f 54f
10:50pm 4.5ft 10s 6s 2 4 mph 1011.4mb 54f 54f
9:50pm 5ft 11s 7s 4 7 mph 1010.8mb 54f 54f
8:50pm 5.5ft 11s 7s 7 7 mph 1010.2mb 54f 53f
7:50pm 5.5ft 10s 7s 7 7 mph 1009.8mb 54f 53f
6:50pm 5ft 10s 7s 9 11 mph 1009.6mb 54f 54f
5:50pm 5ft 12s 7s 9 11 mph 1009.4mb 54f 53f
4:50pm 5ft 11s 7s 9 11 mph 1009.4mb 54f 53f
3:50pm 5ft 10s 7s 13 16 mph 1009.3mb 54f 54f
2:50pm 5ft 11s 7s 13 16 mph 1009.6mb 54f 54f
1:50pm 5ft 11s 7s 13 16 mph 1009.5mb 53f 53f
12:50pm 5ft 11s 7s 7 9 mph 1009.3mb 54f 52f
11:50am 5ft 11s 7s 11 13 mph 1009mb 54f 52f
10:50am 5ft 11s 6s 7 7 mph 1008.7mb 54f 51f
9:50am 5ft 10s 6s 9 9 mph 1008.7mb 53f 51f
8:50am 5.5ft 11s 6s 7 7 mph 1008.5mb 53f 51f
7:50am 5ft 10s 7s 9 11 mph 1008.1mb 53f 51f
6:50am 5ft 11s 6s 11 13 mph 1007.5mb 53f 52f
5:50am 5ft 11s 7s 13 16 mph 1007.3mb 53f 53f
4:50am 4.5ft 11s 7s 11 13 mph 1007.2mb 53f 52f
3:50am 5ft 11s 7s 11 13 mph 1007.1mb 53f 53f
2:50am 4.5ft 11s 7s 13 16 mph 1007.1mb 53f 53f
1:50am 5ft 11s 7s 11 13 mph 1007.3mb 54f 52f
12:50am 5ft 13s 7s 9 11 mph 1007.5mb 53f 52f
Wed 05/24 11:50pm 5ft 12s 7s 11 13 mph 1007.7mb 53f 52f
10:50pm 5ft 11s 7s 13 16 mph 1007.9mb 53f 53f
9:50pm 5.5ft 11s 7s 13 16 mph 1007.8mb 53f 53f
8:50pm 5.5ft 12s 7s 9 11 mph 1007.8mb 53f 53f
7:50pm 5.5ft 12s 8s 11 11 mph 1007.7mb 53f 53f
6:50pm 5.5ft 13s 8s 11 13 mph 1008.2mb 53f 53f
5:50pm 5ft 13s 8s 11 13 mph 1008.6mb 53f 53f
4:50pm 5ft 13s 8s 11 13 mph 1009.2mb 53f 53f
3:50pm 5ft 12s 8s 9 11 mph 1009.8mb 53f 53f
2:50pm 5ft 13s 8s 13 16 mph 1010.3mb 53f 54f
1:50pm 5ft 13s 8s 13 16 mph 1010.8mb 53f 53f
12:50pm 4.5ft 13s 8s 11 16 mph 1010.9mb 53f 53f
11:50am 5ft 13s 9s 11 13 mph 1011.3mb 53f 53f
10:50am 4.5ft 14s 9s 11 11 mph 1011.5mb 53f 52f
9:50am 4.5ft 11s 9s 11 13 mph 1011.6mb 53f 51f
8:50am 4.5ft 13s 9s 9 11 mph 1011.7mb 53f 51f
7:50am 4ft 14s 10s 9 11 mph 1011.6mb 53f 51f
6:50am 4.5ft 12s 9s 7 7 mph 1011.8mb 53f 51f
5:50am 4.5ft 15s 10s 4 7 mph 1011.8mb 53f 51f
4:50am 4.5ft 14s 10s 4 7 mph 1012.3mb 54f 51f
3:50am 4ft 14s 8s 4 9 mph 1012.6mb 55f 51f
2:50am 3.5ft 13s 9s 7 9 mph 1013mb 54f 51f
1:50am 4.5ft 14s 9s 7 9 mph 1013.3mb 54f 51f
12:50am 4ft 14s 8s 4 7 mph 1013.6mb 54f 51f
Tue 05/23 11:50pm 4.5ft 14s 9s 7 11 mph 1013.9mb 55f 52f
10:50pm 4.5ft 14s 9s 4 9 mph 1013.9mb 55f 51f
9:50pm 3.5ft 15s 8s 2 7 mph 1013.9mb 55f 52f
8:50pm 4.5ft 14s 9s 4 7 mph 1013.9mb 55f 52f
7:50pm 3.5ft 15s 8s 4 7 mph 1014.2mb 55f 53f
6:50pm 4ft 14s 8s 4 9 mph 1014.7mb 55f 53f
5:50pm 4.5ft 15s 9s 7 9 mph 1015.1mb 55f 52f
4:50pm 3.5ft 15s 9s 7 9 mph 1015.4mb 55f 53f
3:50pm 3.5ft 15s 8s 4 7 mph 1015.6mb 55f 52f
2:50pm 4ft 15s 8s 7 9 mph 1015.8mb 55f 52f
1:50pm 4.5ft 15s 9s 9 9 mph 1016mb 55f 51f
12:50pm 4ft 15s 9s 7 9 mph 1015.5mb 55f 51f
11:50am 3.5ft 15s 8s 4 7 mph 1015.6mb 55f 51f
10:50am 3.5ft 16s 8s 2 4 mph 1015.7mb 54f 51f
9:50am 4ft 15s 8s 4 7 mph 1015.8mb 54f 50f
8:50am 3.5ft 15s 7s 7 9 mph 1015.7mb 54f 50f
7:50am 3.5ft 15s 7s 4 7 mph 1015.3mb 54f 50f
6:50am 3.5ft 15s 7s 4 7 mph 1015mb 54f 50f
5:50am 3.5ft 16s 7s 4 7 mph 1014.8mb 54f 50f
4:50am 3.5ft 15s 7s 7 9 mph 1014.8mb 54f 49f